Hauptseite
METAR-TAF:

METAR-TAF

Flughäfen :

Flughafen Kunming-Changshui

Kunming, China

Breite: 25-01N, Länge: 102-41E, Höhe: 1892 m

Beobachtung

Neuester Wetterbericht von vor 49 Minuten, um 16:00 UTC
Wind 10 kt aus Süd/Südwest
Temperatur 17°C
Luftfeuchtigkeit 36%
Luftdruck 1022 hPa
Sichtweite 10 km oder mehr
keine Wolken unter 1500 m und keine Kumulonimbus oder Gewitterwolken

METAR: ZPPP 141600Z 21005MPS CAVOK 17/02 Q1022 NOSIG

Zeit: 00:49 (16:49 UTC)

Prognose

Neuester Wetterbericht von vor 7 Stunden und 43 Minuten, um 09:06 UTC
Gültige Prognose vom 14 um 12 UTC bis 15 um 12 UTC
Wind 8 kt aus Südwest
Sichtweite 10 km oder mehr
Leicht bewölkt in der Höhe von 2600 ft
Übergehend zu
vom 15 um 04 UTC bis 15 um 05 UTC
Wind 17 kt aus Südwest, Böen bis zu 29 kt

TAF: ZPPP 140906Z 1412/1512 23004MPS 9999 FEW026 TX28/1508Z TN15/1423Z BECMG 1504/1505 22009G15MPS

Wetterbeobachtungen und Prognosen von mehr als 4000 Flughäfen (METAR und TAF Bericht).

Die verfügbaren Stationen werden durch gelbe und rote Markierungen auf der Karte dargestellt.

Führen Sie die Maus auf sie, um den Namen der Station zu sehen.

Darauf klicken, um die Beobachtung von Wetterbeobachtungen und Prognosen zu sehen.

Um die Karte zu ändern : klicken Sie auf den grünen Tasten mit einem schwarzen Kreuz Zum Vergrößern, auf den grünen Button mit einem Gedankenstrich zu verkleinern, oder auf die grünen Pfeile für benachbarte Karten.


METAR-TAF: